Time;durP1;ratioP1;P1;durP2;ratioP2;P2;SDS_P1;SDS_P2;PMS_P1;PMS_P2;Temp;Humidity;BMP_temperature;BMP_pressure;BME280_temperature;BME280_humidity;BME280_pressure;Samples;Min_cycle;Max_cycle;Signal;HPM_P1;HPM_P2
2023/12/08 13:08:11;;;;;;;37.03;5.72;;;11.70;99.90;;;;;;7416122;19;20230;-79
2023/12/08 13:10:43;;;;;;;596.08;331.25;;;12.00;99.90;;;;;;7436456;19;20014;-81
2023/12/08 13:13:15;;;;;;;40.67;6.15;;;12.20;99.90;;;;;;7415343;19;20410;-77
2023/12/08 13:15:50;;;;;;;;;;;12.40;99.90;;;;;;7415786;19;20060;-79
2023/12/08 13:18:21;;;;;;;32.42;5.43;;;12.40;99.90;;;;;;7419846;19;20219;-78
2023/12/08 13:20:53;;;;;;;31.02;5.63;;;12.60;99.90;;;;;;7418930;19;20231;-77
2023/12/08 13:23:22;;;;;;;34.80;5.82;;;12.70;99.90;;;;;;7434134;19;20006;-75
2023/12/08 13:25:51;;;;;;;31.40;5.15;;;12.50;99.90;;;;;;7413262;19;20003;-76
2023/12/08 13:33:34;;;;;;;28.80;5.55;;;12.90;99.90;;;;;;7380665;19;20034;-73
2023/12/08 13:36:08;;;;;;;28.60;5.15;;;12.90;99.90;;;;;;7417301;19;20018;-73
2023/12/08 13:38:36;;;;;;;37.10;5.80;;;13.10;99.90;;;;;;7440097;19;20014;-73
2023/12/08 13:41:06;;;;;;;39.63;5.10;;;13.10;99.90;;;;;;7416952;19;20035;-73
2023/12/08 13:43:35;;;;;;;25.45;4.60;;;13.20;99.90;;;;;;7416050;19;20013;-73
2023/12/08 13:46:03;;;;;;;31.73;4.90;;;13.20;99.90;;;;;;7415440;19;20457;-73
2023/12/08 13:48:32;;;;;;;31.55;5.05;;;13.30;99.90;;;;;;7416576;19;20007;-76
2023/12/08 13:51:01;;;;;;;32.05;4.93;;;13.30;99.90;;;;;;7414286;19;20036;-75
2023/12/08 13:53:32;;;;;;;38.95;5.82;;;13.40;99.90;;;;;;7437166;19;20065;-77
2023/12/08 13:56:01;;;;;;;39.47;5.10;;;13.30;99.90;;;;;;7416265;19;20013;-76
2023/12/08 13:58:29;;;;;;;32.80;4.78;;;13.20;99.90;;;;;;7415743;19;20069;-75
2023/12/08 14:00:58;;;;;;;30.33;4.65;;;13.20;99.90;;;;;;7417307;19;20425;-76
2023/12/08 14:03:27;;;;;;;26.90;4.95;;;13.30;99.90;;;;;;7401398;19;20018;-76
2023/12/08 14:05:56;;;;;;;39.92;5.18;;;13.40;99.90;;;;;;7386650;19;20011;-76
2023/12/08 14:08:28;;;;;;;34.40;4.53;;;13.40;99.90;;;;;;7412395;19;20058;-74
2023/12/08 14:10:59;;;;;;;35.22;5.28;;;13.50;99.90;;;;;;7388808;19;20014;-74
2023/12/08 14:13:28;;;;;;;31.13;4.82;;;13.50;99.90;;;;;;7387352;19;20007;-75
2023/12/08 14:15:58;;;;;;;27.42;5.15;;;13.40;99.90;;;;;;7388375;19;20011;-75
2023/12/08 14:18:26;;;;;;;16.08;4.20;;;13.40;99.90;;;;;;7390222;19;20074;-75
2023/12/08 14:20:55;;;;;;;33.78;5.63;;;13.30;99.90;;;;;;7390531;19;20010;-76
2023/12/08 14:23:27;;;;;;;24.00;4.80;;;13.40;99.90;;;;;;7411471;19;20035;-76
2023/12/08 14:25:57;;;;;;;42.50;5.97;;;13.40;99.90;;;;;;7389704;19;20007;-77
2023/12/08 14:28:29;;;;;;;40.22;5.13;;;13.50;99.90;;;;;;7389507;19;20020;-76
2023/12/08 14:30:58;;;;;;;27.23;4.05;;;13.50;99.90;;;;;;7386752;19;20661;-74
2023/12/08 14:33:26;;;;;;;36.22;5.18;;;13.50;99.90;;;;;;7385039;19;20032;-75
2023/12/08 14:35:55;;;;;;;29.60;4.03;;;13.60;99.90;;;;;;7388155;19;20014;-75
2023/12/08 14:38:24;;;;;;;25.00;4.68;;;13.50;99.90;;;;;;7409834;19;20010;-75
2023/12/08 14:40:53;;;;;;;29.88;4.20;;;13.50;99.90;;;;;;7388163;19;20287;-75
2023/12/08 14:43:22;;;;;;;38.70;4.97;;;13.50;99.90;;;;;;7389772;19;20051;-77
2023/12/08 14:45:53;;;;;;;43.78;4.88;;;13.50;99.90;;;;;;7389616;19;20007;-76
2023/12/08 14:48:23;;;;;;;37.05;5.25;;;13.50;99.90;;;;;;7388439;19;20024;-76
2023/12/08 14:50:52;;;;;;;25.67;5.43;;;13.50;99.90;;;;;;7389195;19;20074;-76
2023/12/08 14:53:21;;;;;;;39.30;5.15;;;13.40;99.90;;;;;;7409744;19;20006;-75
2023/12/08 14:55:50;;;;;;;27.83;3.65;;;13.20;99.90;;;;;;7386662;19;20062;-76
2023/12/08 14:58:19;;;;;;;28.15;4.60;;;13.20;99.90;;;;;;7385687;19;20010;-74
2023/12/08 15:00:47;;;;;;;28.25;3.60;;;13.20;99.90;;;;;;7386772;19;20412;-75
2023/12/08 15:03:18;;;;;;;24.60;4.38;;;13.30;99.90;;;;;;7385830;19;20071;-74
2023/12/08 15:05:47;;;;;;;35.65;4.05;;;13.40;99.90;;;;;;7409579;19;20062;-75
2023/12/08 15:08:16;;;;;;;28.88;3.90;;;13.30;99.90;;;;;;7387107;19;20062;-76
2023/12/08 15:10:45;;;;;;;26.42;4.00;;;13.30;99.90;;;;;;7386145;19;20241;-76
2023/12/08 15:13:13;;;;;;;27.52;3.55;;;13.30;99.90;;;;;;7386074;19;20023;-76
2023/12/08 15:15:42;;;;;;;19.23;3.33;;;13.30;99.90;;;;;;7384690;19;20372;-75
2023/12/08 15:18:11;;;;;;;12.48;3.22;;;13.30;99.90;;;;;;7389060;19;20078;-73
2023/12/08 15:20:49;;;;;;;14.82;3.35;;;13.30;99.90;;;;;;7409336;19;20025;-74
2023/12/08 15:23:20;;;;;;;23.42;3.17;;;13.30;99.90;;;;;;7385325;19;20018;-74
2023/12/08 15:25:48;;;;;;;13.63;2.80;;;13.40;99.90;;;;;;7385145;19;20271;-74
2023/12/08 15:28:18;;;;;;;13.00;2.83;;;13.30;99.90;;;;;;7386125;19;20062;-76
2023/12/08 15:30:47;;;;;;;10.77;2.38;;;13.30;99.90;;;;;;7386019;19;20012;-73
2023/12/08 15:33:16;;;;;;;11.75;2.60;;;13.30;99.90;;;;;;7385837;19;20006;-73
2023/12/08 15:35:49;;;;;;;17.45;2.80;;;13.20;99.90;;;;;;7408480;19;20011;-75
2023/12/08 15:38:18;;;;;;;10.95;1.92;;;13.00;99.90;;;;;;7386991;19;20356;-73
2023/12/08 15:40:49;;;;;;;11.60;2.17;;;13.00;99.90;;;;;;7386348;19;20003;-74
2023/12/08 15:43:18;;;;;;;6.93;2.00;;;13.00;99.90;;;;;;7386089;19;20407;-74
2023/12/08 15:45:47;;;;;;;13.60;2.58;;;13.00;99.90;;;;;;7387213;19;20017;-73
2023/12/08 15:48:17;;;;;;;15.63;2.50;;;13.10;99.90;;;;;;7386353;19;20317;-73
2023/12/08 15:50:49;;;;;;;7.97;2.50;;;13.10;99.90;;;;;;7407138;19;20070;-73
2023/12/08 15:53:17;;;;;;;9.32;2.22;;;13.10;99.90;;;;;;7384935;19;20275;-73
2023/12/08 15:55:46;;;;;;;11.48;2.42;;;13.10;99.90;;;;;;7386104;19;20003;-75
2023/12/08 15:58:17;;;;;;;20.50;2.83;;;13.10;99.90;;;;;;7385578;19;20429;-75
2023/12/08 16:00:50;;;;;;;9.40;1.95;;;13.10;99.90;;;;;;7386717;19;20010;-75
2023/12/08 16:03:21;;;;;;;5.38;2.28;;;13.10;99.90;;;;;;7384510;19;20409;-76
2023/12/08 16:05:52;;;;;;;14.07;2.40;;;13.00;99.90;;;;;;7407471;19;20006;-76
2023/12/08 16:08:21;;;;;;;12.63;2.40;;;13.00;99.90;;;;;;7385609;19;20085;-75
2023/12/08 16:10:50;;;;;;;9.88;2.40;;;12.90;99.90;;;;;;7384314;19;20032;-76
2023/12/08 16:13:18;;;;;;;14.23;2.65;;;12.80;99.90;;;;;;7384055;19;20007;-76
2023/12/08 16:15:47;;;;;;;9.23;3.28;;;12.80;99.90;;;;;;7384065;19;20007;-74
2023/12/08 16:18:16;;;;;;;9.75;3.15;;;12.70;99.90;;;;;;7384137;19;20454;-76
2023/12/08 16:20:45;;;;;;;16.08;3.20;;;12.70;99.90;;;;;;7408644;19;20023;-75
2023/12/08 16:23:18;;;;;;;18.70;3.40;;;12.60;99.90;;;;;;7383615;19;20007;-76
2023/12/08 16:25:47;;;;;;;15.23;3.35;;;12.60;99.90;;;;;;7384348;19;20390;-75
2023/12/08 16:28:16;;;;;;;13.90;3.40;;;12.60;99.90;;;;;;7384235;19;20002;-75
2023/12/08 16:30:44;;;;;;;23.77;3.50;;;12.50;99.90;;;;;;7383538;19;20203;-75
2023/12/08 16:33:15;;;;;;;10.43;2.92;;;12.40;99.90;;;;;;7383752;19;20004;-76
2023/12/08 16:35:44;;;;;;;16.38;3.15;;;12.40;99.90;;;;;;7407578;19;20011;-75
2023/12/08 16:38:25;;;;;;;11.73;3.45;;;12.40;99.90;;;;;;7389877;19;20003;-74
2023/12/08 16:40:56;;;;;;;899.47;425.90;;;12.30;99.90;;;;;;7399804;19;20042;-77
2023/12/08 16:43:28;;;;;;;23.17;5.28;;;12.20;99.90;;;;;;7393790;19;20006;-75
2023/12/08 16:45:58;;;;;;;13.30;3.38;;;12.10;99.90;;;;;;7389664;19;20430;-75
2023/12/08 16:48:27;;;;;;;6.50;2.50;;;12.10;99.90;;;;;;7390384;19;20071;-76
2023/12/08 16:50:56;;;;;;;19.30;3.70;;;12.00;99.90;;;;;;7385920;19;20022;-75
2023/12/08 16:53:25;;;;;;;28.85;9.07;;;12.00;99.90;;;;;;7406917;19;20021;-75
2023/12/08 16:55:56;;;;;;;14.43;3.88;;;12.00;99.90;;;;;;7383944;19;20074;-74
2023/12/08 16:58:25;;;;;;;16.45;4.40;;;11.90;99.90;;;;;;7384040;19;20020;-74
2023/12/08 17:00:53;;;;;;;10.95;3.72;;;11.90;99.90;;;;;;7383392;19;20018;-75
2023/12/08 17:03:22;;;;;;;1133.80;702.10;;;11.90;99.90;;;;;;7386875;19;20083;-75
2023/12/08 17:05:51;;;;;;;136.40;58.63;;;11.90;99.90;;;;;;7405665;19;20033;-74
2023/12/08 17:08:22;;;;;;;33.72;11.38;;;11.90;99.90;;;;;;7383312;19;20291;-75
2023/12/08 17:10:53;;;;;;;26.60;9.18;;;11.90;99.90;;;;;;7383310;19;20110;-75
2023/12/08 17:13:24;;;;;;;27.40;9.50;;;11.90;99.90;;;;;;7382865;19;20011;-75
2023/12/08 17:15:53;;;;;;;25.17;7.20;;;11.90;99.90;;;;;;7383181;19;20383;-75
2023/12/08 17:18:23;;;;;;;25.38;5.32;;;11.90;99.90;;;;;;7383667;19;20003;-75
2023/12/08 17:20:51;;;;;;;18.40;5.28;;;11.80;99.90;;;;;;7405157;19;20011;-76
2023/12/08 17:23:22;;;;;;;17.95;7.28;;;11.80;99.90;;;;;;7401645;19;20019;-75
2023/12/08 17:25:54;;;;;;;23.52;8.80;;;11.70;99.90;;;;;;7381273;19;20010;-74
2023/12/08 17:28:26;;;;;;;27.45;8.65;;;11.70;99.90;;;;;;7381539;19;20003;-75
2023/12/08 17:30:57;;;;;;;26.92;8.75;;;11.70;99.90;;;;;;7382932;19;20086;-75
2023/12/08 17:33:26;;;;;;;19.02;7.65;;;11.60;99.90;;;;;;7379370;19;19999;-75
2023/12/08 17:35:56;;;;;;;24.38;8.13;;;11.60;99.90;;;;;;7380833;19;20028;-77
2023/12/08 17:38:24;;;;;;;30.13;9.07;;;11.50;99.90;;;;;;7406124;19;20086;-75
2023/12/08 17:40:53;;;;;;;33.13;10.23;;;11.50;99.90;;;;;;7388868;19;20019;-75
2023/12/08 17:43:29;;;;;;;37.10;14.07;;;11.50;99.90;;;;;;7387384;19;20019;-77
2023/12/08 17:45:58;;;;;;;38.67;12.75;;;11.50;99.90;;;;;;7387892;19;20095;-77
2023/12/08 17:48:27;;;;;;;38.97;13.05;;;11.40;99.90;;;;;;7389399;19;20011;-77
2023/12/08 17:50:58;;;;;;;45.90;15.88;;;11.40;99.90;;;;;;7390277;19;20007;-74
2023/12/08 17:53:27;;;;;;;;;;;11.40;99.90;;;;;;7414304;19;20094;-78
2023/12/08 17:55:55;;;;;;;30.10;12.30;;;11.40;99.90;;;;;;7389564;19;19911;-78
2023/12/08 17:58:27;;;;;;;26.35;10.43;;;11.30;99.90;;;;;;7388649;19;20058;-75
2023/12/08 18:00:55;;;;;;;27.92;12.35;;;11.30;99.90;;;;;;7390285;19;20027;-74
2023/12/08 18:03:28;;;;;;;28.83;10.93;;;11.20;99.90;;;;;;7389551;19;20426;-73
2023/12/08 18:05:57;;;;;;;50.25;20.85;;;11.20;99.90;;;;;;7389982;19;20018;-75
2023/12/08 18:08:25;;;;;;;33.83;12.73;;;11.20;99.90;;;;;;7411907;19;20074;-74
2023/12/08 18:10:54;;;;;;;37.10;11.93;;;11.20;99.90;;;;;;7388972;19;20015;-75
2023/12/08 18:13:25;;;;;;;30.80;9.27;;;11.10;99.90;;;;;;7389990;19;20035;-76
2023/12/08 18:15:57;;;;;;;25.80;10.73;;;11.20;99.90;;;;;;7391194;19;20015;-75
2023/12/08 18:18:25;;;;;;;22.35;9.90;;;11.10;99.90;;;;;;7389835;19;20023;-75
2023/12/08 18:20:54;;;;;;;26.25;7.00;;;11.10;99.90;;;;;;7392513;19;20353;-75
2023/12/08 18:23:23;;;;;;;25.50;5.93;;;11.10;99.90;;;;;;7410178;19;20010;-74
2023/12/08 18:25:53;;;;;;;120.18;47.05;;;11.10;99.90;;;;;;7388876;19;20093;-74
2023/12/08 18:28:22;;;;;;;39.75;14.10;;;11.10;99.90;;;;;;7392740;19;20082;-73
2023/12/08 18:30:52;;;;;;;22.75;10.15;;;11.00;99.90;;;;;;7388802;19;20066;-75
2023/12/08 18:33:23;;;;;;;26.83;9.35;;;11.00;99.90;;;;;;7387633;19;20006;-73
2023/12/08 18:35:52;;;;;;;35.92;11.35;;;11.00;99.90;;;;;;7408751;19;20011;-74
2023/12/08 18:38:20;;;;;;;29.70;9.25;;;11.00;99.90;;;;;;7386672;19;20014;-74
2023/12/08 18:40:50;;;;;;;35.53;11.15;;;11.00;99.90;;;;;;7383667;19;20007;-73
2023/12/08 18:43:19;;;;;;;45.10;20.13;;;11.00;99.90;;;;;;7386269;19;20028;-76
2023/12/08 18:45:47;;;;;;;33.83;10.73;;;11.00;99.90;;;;;;7387432;19;20240;-74
2023/12/08 18:48:16;;;;;;;21.98;7.78;;;11.00;99.90;;;;;;7386639;19;20010;-74
2023/12/08 18:50:47;;;;;;;28.98;7.32;;;10.90;99.90;;;;;;7410116;19;20082;-74
2023/12/08 18:53:16;;;;;;;19.30;6.88;;;10.90;99.90;;;;;;7387057;19;20002;-74
2023/12/08 18:55:45;;;;;;;1178.75;602.85;;;10.90;99.90;;;;;;7393938;19;20019;-78
2023/12/08 18:58:15;;;;;;;44.22;13.55;;;10.90;99.90;;;;;;7399342;19;20007;-76
2023/12/08 19:00:44;;;;;;;28.63;6.85;;;10.90;99.90;;;;;;7392891;19;20078;-74
2023/12/08 19:03:13;;;;;;;17.77;7.00;;;10.90;99.90;;;;;;7391425;19;20270;-74
2023/12/08 19:05:42;;;;;;;18.65;6.35;;;10.90;99.90;;;;;;7414671;19;20354;-75
2023/12/08 19:08:13;;;;;;;17.35;5.70;;;10.80;99.90;;;;;;7389249;19;20010;-73
2023/12/08 19:10:42;;;;;;;23.48;5.93;;;10.80;99.90;;;;;;7385643;19;20024;-74
2023/12/08 19:13:11;;;;;;;28.17;5.80;;;10.80;99.90;;;;;;7384940;19;20023;-74
2023/12/08 19:15:40;;;;;;;17.35;5.10;;;10.80;99.90;;;;;;7387256;19;20118;-74
2023/12/08 19:18:08;;;;;;;13.60;4.88;;;10.80;99.90;;;;;;7385291;19;20014;-74
2023/12/08 19:20:40;;;;;;;12.98;5.00;;;10.80;99.90;;;;;;7408711;19;20079;-74
2023/12/08 19:23:09;;;;;;;14.63;4.40;;;10.80;99.90;;;;;;7386519;19;20320;-73
2023/12/08 19:25:42;;;;;;;17.20;5.47;;;10.80;99.90;;;;;;7386357;19;20242;-74
2023/12/08 19:28:13;;;;;;;23.00;10.68;;;10.70;99.90;;;;;;7385427;19;20015;-73
2023/12/08 19:30:44;;;;;;;15.05;4.97;;;10.70;99.90;;;;;;7386401;19;20007;-74
2023/12/08 19:33:13;;;;;;;17.30;4.40;;;10.70;99.90;;;;;;7385585;19;20064;-73
2023/12/08 19:35:43;;;;;;;15.10;5.70;;;10.70;99.90;;;;;;7408312;19;20039;-74
2023/12/08 19:38:12;;;;;;;17.27;4.93;;;10.70;99.90;;;;;;7385779;19;20011;-74
2023/12/08 19:40:44;;;;;;;16.25;4.05;;;10.70;99.90;;;;;;7386274;19;20377;-74
2023/12/08 19:43:14;;;;;;;20.58;3.95;;;10.60;99.90;;;;;;7386216;19;20010;-74
2023/12/08 19:45:44;;;;;;;23.30;4.90;;;10.70;99.90;;;;;;7386324;19;20023;-75
2023/12/08 19:48:12;;;;;;;20.75;4.32;;;10.60;99.90;;;;;;7385931;19;20021;-74
2023/12/08 19:50:41;;;;;;;15.27;5.60;;;10.60;99.90;;;;;;7407822;19;20034;-74
2023/12/08 19:53:10;;;;;;;14.65;4.63;;;10.60;99.90;;;;;;7384879;19;20052;-74
2023/12/08 19:55:39;;;;;;;19.42;5.68;;;10.60;99.90;;;;;;7384420;19;20007;-74
2023/12/08 19:58:10;;;;;;;20.42;5.75;;;10.60;99.90;;;;;;7383914;19;20265;-74
2023/12/08 20:00:40;;;;;;;21.88;5.97;;;10.50;99.90;;;;;;7385912;19;20235;-74
2023/12/08 20:03:09;;;;;;;15.27;5.20;;;10.50;99.90;;;;;;7384981;19;20082;-74
2023/12/08 20:05:38;;;;;;;18.77;5.03;;;10.50;99.90;;;;;;7404265;19;20019;-74
2023/12/08 20:08:07;;;;;;;22.88;6.68;;;10.50;99.90;;;;;;7383797;19;20003;-73
2023/12/08 20:10:38;;;;;;;14.48;6.68;;;10.40;99.90;;;;;;7384347;19;20074;-75
2023/12/08 20:13:06;;;;;;;20.38;6.25;;;10.40;99.90;;;;;;7383773;19;20015;-74
2023/12/08 20:15:42;;;;;;;19.67;9.23;;;10.50;99.90;;;;;;7384789;19;20014;-74
2023/12/08 20:18:11;;;;;;;23.83;10.20;;;10.40;99.90;;;;;;7385048;19;20010;-74
2023/12/08 20:20:39;;;;;;;22.63;8.57;;;10.40;99.90;;;;;;7407463;19;20002;-73
2023/12/08 20:23:08;;;;;;;27.73;11.55;;;10.40;99.90;;;;;;7384312;19;20002;-74
2023/12/08 20:25:37;;;;;;;36.15;16.27;;;10.40;99.90;;;;;;7383608;19;20014;-74
2023/12/08 20:28:06;;;;;;;29.33;13.70;;;10.30;99.90;;;;;;7383659;19;20014;-74
2023/12/08 20:30:34;;;;;;;34.30;14.02;;;10.30;99.90;;;;;;7385174;19;20075;-75
2023/12/08 20:33:09;;;;;;;25.48;13.50;;;10.30;99.90;;;;;;7382739;19;20019;-73
2023/12/08 20:35:37;;;;;;;38.22;15.93;;;10.30;99.90;;;;;;7406041;19;20042;-74
2023/12/08 20:38:06;;;;;;;49.08;17.42;;;10.30;99.90;;;;;;7383954;19;20015;-74
2023/12/08 20:40:35;;;;;;;31.00;15.90;;;10.30;99.90;;;;;;7383197;19;20027;-74
2023/12/08 20:43:04;;;;;;;44.78;18.75;;;10.30;99.90;;;;;;7384143;19;20015;-73
2023/12/08 20:45:32;;;;;;;42.47;15.13;;;10.30;99.90;;;;;;7383308;19;20456;-74
2023/12/08 20:48:06;;;;;;;28.50;14.55;;;10.30;99.90;;;;;;7383298;19;20280;-74
2023/12/08 20:50:34;;;;;;;32.78;13.93;;;10.30;99.90;;;;;;7406320;19;20031;-74
2023/12/08 20:53:03;;;;;;;40.40;13.00;;;10.30;99.90;;;;;;7383180;19;20014;-74
2023/12/08 20:55:32;;;;;;;33.45;11.00;;;10.30;99.90;;;;;;7383520;19;20011;-74
2023/12/08 20:58:00;;;;;;;24.63;9.02;;;10.30;99.90;;;;;;7383511;19;20011;-77
2023/12/08 21:00:29;;;;;;;18.92;9.00;;;10.20;99.90;;;;;;7384138;19;20494;-73
2023/12/08 21:02:59;;;;;;;23.08;9.18;;;10.20;99.90;;;;;;7383228;19;20075;-74
2023/12/08 21:05:30;;;;;;;31.60;10.23;;;10.20;99.90;;;;;;7405768;19;20023;-77
2023/12/08 21:08:01;;;;;;;32.90;9.40;;;10.30;99.90;;;;;;7383103;19;20011;-77
2023/12/08 21:10:29;;;;;;;19.27;8.88;;;10.30;99.90;;;;;;7383466;19;20074;-76
2023/12/08 21:12:58;;;;;;;28.30;7.95;;;10.30;99.90;;;;;;7384133;19;20007;-76
2023/12/08 21:15:28;;;;;;;28.58;8.48;;;10.30;99.90;;;;;;7396001;19;20373;-76
2023/12/08 21:18:00;;;;;;;26.85;7.22;;;10.30;99.90;;;;;;7398568;19;20248;-76
2023/12/08 21:20:32;;;;;;;20.98;8.77;;;10.30;99.90;;;;;;7420306;19;20015;-76
2023/12/08 21:23:00;;;;;;;22.98;9.57;;;10.20;99.90;;;;;;7396466;19;20070;-76
2023/12/08 21:25:29;;;;;;;28.33;12.45;;;10.30;99.90;;;;;;7393615;19;20012;-76
2023/12/08 21:27:58;;;;;;;32.28;11.25;;;10.20;99.90;;;;;;7390880;19;20019;-75
2023/12/08 21:30:27;;;;;;;31.15;8.30;;;10.30;99.90;;;;;;7391830;19;19998;-76
2023/12/08 21:32:56;;;;;;;18.02;6.75;;;10.20;99.90;;;;;;7409595;19;20014;-75
2023/12/08 21:35:26;;;;;;;20.05;5.47;;;10.20;99.90;;;;;;7415522;19;20011;-75
2023/12/08 21:37:58;;;;;;;23.50;6.28;;;10.20;99.90;;;;;;7391775;19;20010;-76
2023/12/08 21:40:27;;;;;;;21.83;6.35;;;10.20;99.90;;;;;;7391339;19;20289;-76
2023/12/08 21:42:56;;;;;;;27.15;5.90;;;10.20;99.90;;;;;;7390044;19;20010;-76
2023/12/08 21:45:25;;;;;;;20.88;5.05;;;10.10;99.90;;;;;;7389273;19;20007;-76
2023/12/08 21:47:53;;;;;;;33.58;5.13;;;10.10;99.90;;;;;;7413382;19;20014;-76
2023/12/08 21:50:23;;;;;;;14.07;4.18;;;10.10;99.90;;;;;;7389984;19;20018;-77
2023/12/08 21:52:52;;;;;;;25.58;5.82;;;10.10;99.90;;;;;;7389301;19;20002;-77
2023/12/08 21:55:26;;;;;;;31.10;5.40;;;10.10;99.90;;;;;;7389298;19;20015;-76
2023/12/08 21:57:55;;;;;;;12.32;5.75;;;10.10;99.90;;;;;;7390487;19;20070;-76
2023/12/08 22:00:24;;;;;;;22.83;5.65;;;10.10;99.90;;;;;;7389404;19;20093;-76
2023/12/08 22:02:53;;;;;;;28.65;4.85;;;10.10;99.90;;;;;;7412327;19;20019;-77
2023/12/08 22:05:22;;;;;;;13.63;4.80;;;10.10;99.90;;;;;;7388100;19;20244;-76
2023/12/08 22:07:51;;;;;;;20.63;5.72;;;10.10;99.90;;;;;;7388014;19;20010;-76
2023/12/08 22:10:19;;;;;;;30.77;4.72;;;10.10;99.90;;;;;;7388522;19;20440;-75
2023/12/08 22:12:53;;;;;;;25.15;6.10;;;10.00;99.90;;;;;;7389575;19;20052;-76
2023/12/08 22:15:23;;;;;;;16.67;5.53;;;10.10;99.90;;;;;;7389986;19;20002;-76
2023/12/08 22:17:51;;;;;;;29.52;5.15;;;10.00;99.90;;;;;;7412130;19;20017;-76
2023/12/08 22:20:22;;;;;;;29.73;6.75;;;10.00;99.90;;;;;;7389709;19;20003;-76
2023/12/08 22:22:51;;;;;;;20.33;8.03;;;10.00;99.90;;;;;;7389187;19;20010;-76
2023/12/08 22:25:19;;;;;;;25.48;10.38;;;10.10;99.90;;;;;;7387268;19;20343;-75
2023/12/08 22:27:50;;;;;;;25.45;8.98;;;10.10;99.90;;;;;;7386505;19;20016;-76
2023/12/08 22:30:20;;;;;;;28.45;8.20;;;10.00;99.90;;;;;;7389437;19;20007;-76
2023/12/08 22:32:48;;;;;;;15.85;5.85;;;10.00;99.90;;;;;;7409817;19;20010;-77
2023/12/08 22:35:17;;;;;;;13.38;5.13;;;9.90;99.90;;;;;;7388331;19;20014;-77
2023/12/08 22:37:46;;;;;;;14.02;4.82;;;10.00;99.90;;;;;;7388990;19;20358;-76
2023/12/08 22:40:14;;;;;;;21.23;5.45;;;10.00;99.90;;;;;;7388963;19;20024;-76
2023/12/08 22:42:43;;;;;;;23.08;6.22;;;10.00;99.90;;;;;;7387007;19;20006;-77
2023/12/08 22:45:15;;;;;;;20.98;7.45;;;9.90;99.90;;;;;;7387629;19;20086;-75
2023/12/08 22:47:44;;;;;;;13.80;6.60;;;10.00;99.90;;;;;;7410363;19;20028;-76
2023/12/08 22:50:19;;;;;;;19.63;8.45;;;10.00;99.90;;;;;;7387475;19;20015;-76
2023/12/08 22:53:02;;;;;;;18.10;7.10;;;10.00;99.90;;;;;;7387553;19;20006;-76
2023/12/08 22:55:33;;;;;;;14.77;6.35;;;10.00;99.90;;;;;;7387272;19;20361;-76
2023/12/08 22:58:02;;;;;;;33.72;8.32;;;10.00;99.90;;;;;;7386460;19;20015;-77
2023/12/08 23:00:35;;;;;;;22.55;6.40;;;9.90;99.90;;;;;;7385400;19;20062;-76
2023/12/08 23:03:04;;;;;;;26.92;5.95;;;9.90;99.90;;;;;;7388097;19;20357;-76
2023/12/08 23:05:32;;;;;;;16.15;4.90;;;9.90;99.90;;;;;;7408785;19;20015;-75
2023/12/08 23:08:02;;;;;;;15.13;5.07;;;9.90;99.90;;;;;;7386755;19;20031;-79
2023/12/08 23:10:30;;;;;;;20.40;4.40;;;9.90;99.90;;;;;;7387546;19;20003;-77
2023/12/08 23:13:01;;;;;;;13.30;4.85;;;9.90;99.90;;;;;;7387468;19;20110;-76
2023/12/08 23:15:32;;;;;;;17.90;5.35;;;9.90;99.90;;;;;;7388558;19;20003;-75
2023/12/08 23:18:01;;;;;;;;;;;9.90;99.90;;;;;;7387784;19;20382;-76
2023/12/08 23:20:30;;;;;;;12.73;4.70;;;9.90;99.90;;;;;;7407579;19;19914;-76
2023/12/08 23:23:00;;;;;;;17.70;4.85;;;9.80;99.90;;;;;;7386190;19;20018;-76
2023/12/08 23:25:34;;;;;;;24.23;5.67;;;9.90;99.90;;;;;;7386032;19;20058;-76
2023/12/08 23:28:04;;;;;;;19.15;6.07;;;9.80;99.90;;;;;;7387021;19;20027;-76
2023/12/08 23:30:36;;;;;;;21.40;6.47;;;9.90;99.90;;;;;;7393476;19;20242;-77
2023/12/08 23:33:04;;;;;;;;;;;9.90;99.90;;;;;;7392246;19;20014;-77
2023/12/08 23:35:33;;;;;;;15.63;5.78;;;9.90;99.90;;;;;;7415910;19;19923;-76
2023/12/08 23:38:01;;;;;;;18.33;5.30;;;9.90;99.90;;;;;;7391515;19;20059;-76
2023/12/08 23:40:30;;;;;;;32.75;12.55;;;9.90;99.90;;;;;;7388501;19;20014;-75
2023/12/08 23:42:59;;;;;;;40.55;17.33;;;9.90;99.90;;;;;;7386279;19;20011;-76
2023/12/08 23:45:29;;;;;;;30.95;10.27;;;9.90;99.90;;;;;;7386359;19;20070;-76
2023/12/08 23:48:03;;;;;;;20.25;7.85;;;9.90;99.90;;;;;;7388450;19;20019;-76
2023/12/08 23:50:32;;;;;;;23.13;5.32;;;9.90;99.90;;;;;;7409227;19;20014;-75
2023/12/08 23:53:00;;;;;;;25.05;4.80;;;9.90;99.90;;;;;;7386495;19;20038;-76
2023/12/08 23:55:29;;;;;;;27.35;5.38;;;9.90;99.90;;;;;;7387080;19;20326;-76
2023/12/08 23:58:00;;;;;;;27.48;6.90;;;9.90;99.90;;;;;;7387014;19;20006;-76
